createdAt,value
2022-12-20T00:01:28.832Z,48.03
2022-12-20T00:05:45.092Z,59.67
2022-12-20T00:10:01.589Z,48.25
2022-12-20T00:14:18.230Z,60.17
2022-12-20T00:18:35.030Z,55.90
2022-12-20T00:22:51.146Z,59.30
2022-12-20T00:27:07.423Z,49.45
2022-12-20T00:31:24.956Z,62.22
2022-12-20T00:35:43.533Z,53.55
2022-12-20T00:39:59.897Z,51.92
2022-12-20T00:44:16.117Z,55.55
2022-12-20T00:48:33.249Z,53.92
2022-12-20T00:52:49.597Z,47.72
2022-12-20T00:57:05.867Z,58.47
2022-12-20T01:01:28.499Z,53.78
2022-12-20T01:05:55.924Z,47.00
2022-12-20T01:10:12.373Z,60.33
2022-12-20T01:14:28.548Z,48.55
2022-12-20T01:18:44.866Z,48.22
2022-12-20T01:23:01.147Z,45.60
2022-12-20T01:27:17.275Z,60.33
2022-12-20T01:31:34.068Z,48.42
2022-12-20T01:36:21.104Z,46.72
2022-12-20T01:40:40.128Z,53.35
2022-12-20T01:44:58.845Z,50.97
2022-12-20T01:49:19.815Z,52.67
2022-12-20T01:53:36.003Z,56.37
2022-12-20T01:58:12.455Z,51.05
2022-12-20T02:02:28.891Z,46.72
2022-12-20T02:06:45.199Z,51.08
2022-12-20T02:11:13.517Z,55.95
2022-12-20T02:15:56.745Z,52.22
2022-12-20T02:20:49.607Z,50.53
2022-12-20T02:25:37.554Z,44.97
2022-12-20T02:30:16.145Z,50.47
2022-12-20T02:34:34.142Z,50.70
2022-12-20T02:38:51.436Z,53.65
2022-12-20T02:43:29.292Z,50.75
2022-12-20T02:47:59.281Z,43.92
2022-12-20T02:52:15.813Z,52.70
2022-12-20T02:56:48.907Z,49.95
2022-12-20T03:01:27.923Z,56.55
2022-12-20T03:05:47.066Z,49.42
2022-12-20T03:10:03.241Z,50.25
2022-12-20T03:14:19.985Z,49.58
2022-12-20T03:18:36.181Z,49.92
2022-12-20T03:22:52.480Z,53.33
2022-12-20T03:27:09.332Z,54.97
2022-12-20T03:31:25.790Z,53.25
2022-12-20T03:35:42.234Z,44.63
2022-12-20T03:39:58.533Z,50.03
2022-12-20T03:44:14.741Z,48.25
2022-12-20T03:48:30.967Z,46.67
2022-12-20T03:52:47.171Z,45.25
2022-12-20T03:57:03.320Z,45.17
2022-12-20T04:01:28.567Z,43.50
2022-12-20T04:05:44.878Z,45.42
2022-12-20T04:10:01.059Z,42.92
2022-12-20T04:14:17.317Z,51.58
2022-12-20T04:18:33.497Z,44.95
2022-12-20T04:22:51.072Z,46.28
2022-12-20T04:27:07.348Z,44.72
2022-12-20T04:31:24.580Z,39.80
2022-12-20T04:35:41.014Z,48.80
2022-12-20T04:39:58.557Z,46.90
2022-12-20T04:44:14.768Z,43.35
2022-12-20T04:48:56.253Z,41.88
2022-12-20T04:53:25.758Z,43.25
2022-12-20T04:57:41.945Z,42.00
2022-12-20T05:01:58.242Z,40.50
2022-12-20T05:06:15.227Z,51.13
2022-12-20T05:10:31.573Z,44.15
2022-12-20T05:14:47.720Z,47.60
2022-12-20T05:19:04.846Z,44.10
2022-12-20T05:23:39.480Z,41.40
2022-12-20T05:27:58.749Z,42.62
2022-12-20T05:32:15.099Z,35.50
2022-12-20T05:36:31.416Z,40.95
2022-12-20T05:40:49.503Z,42.47
2022-12-20T05:45:06.434Z,42.65
2022-12-20T05:49:22.651Z,41.50
2022-12-20T05:53:38.868Z,43.53
2022-12-20T05:57:54.983Z,42.10
2022-12-20T06:02:12.511Z,40.05
2022-12-20T06:06:28.848Z,42.42
2022-12-20T06:10:45.010Z,38.97
2022-12-20T08:39:50.090Z,37.05
2022-12-20T08:44:07.216Z,42.70
2022-12-20T08:48:23.729Z,39.97
2022-12-20T08:52:40.433Z,42.03
2022-12-20T08:56:56.651Z,36.67
2022-12-20T09:01:17.965Z,38.42
2022-12-20T09:05:34.150Z,38.85
2022-12-20T09:09:50.455Z,36.63
2022-12-20T09:14:08.361Z,38.13
2022-12-20T09:18:24.454Z,39.92
2022-12-20T09:22:40.593Z,40.12
2022-12-20T09:26:56.813Z,36.72
2022-12-20T09:31:15.789Z,42.20
2022-12-20T09:35:33.708Z,34.70
2022-12-20T09:39:53.237Z,39.63
2022-12-20T09:44:31.842Z,39.08
2022-12-20T09:48:48.399Z,43.97
2022-12-20T09:53:20.295Z,37.45
2022-12-20T09:58:08.981Z,39.22
2022-12-20T10:02:55.531Z,35.60
2022-12-20T10:07:14.580Z,37.65
2022-12-20T10:11:51.480Z,34.38
2022-12-20T10:16:34.985Z,33.38
2022-12-20T10:21:16.283Z,33.90
2022-12-20T10:25:34.471Z,27.50
2022-12-20T10:29:51.129Z,35.50
2022-12-20T10:34:08.116Z,32.78
2022-12-20T10:38:24.926Z,32.78
2022-12-20T10:42:43.452Z,34.97
2022-12-20T10:47:01.585Z,32.88
2022-12-20T10:51:24.785Z,35.40
2022-12-20T10:55:44.561Z,33.65
2022-12-20T11:00:04.244Z,29.50
2022-12-20T11:04:32.542Z,32.60
2022-12-20T11:08:55.367Z,35.67
2022-12-20T11:13:26.110Z,34.08
2022-12-20T11:17:49.041Z,29.33
2022-12-20T11:22:17.453Z,31.67
2022-12-20T11:27:04.015Z,30.25
2022-12-20T11:31:41.601Z,32.33
2022-12-20T11:36:18.164Z,28.77
2022-12-20T11:40:39.156Z,32.00
2022-12-20T11:45:08.817Z,38.33
2022-12-20T11:49:50.949Z,32.22
2022-12-20T11:54:13.798Z,30.15
2022-12-20T11:58:40.388Z,26.37
2022-12-20T12:03:28.980Z,27.27
2022-12-20T12:07:47.985Z,26.42
2022-12-20T12:12:22.275Z,31.58
2022-12-20T12:16:40.965Z,27.60
2022-12-20T12:21:13.914Z,28.35
2022-12-20T12:25:30.188Z,25.00
2022-12-20T12:29:46.433Z,31.87
2022-12-20T12:34:39.436Z,27.23
2022-12-20T12:39:39.604Z,31.03
2022-12-20T12:43:58.934Z,32.58
2022-12-20T12:48:20.748Z,26.48
2022-12-20T12:52:51.617Z,29.12
2022-12-20T12:57:18.939Z,27.05
2022-12-20T13:02:19.902Z,30.65
2022-12-20T13:06:38.523Z,27.52
2022-12-20T13:10:57.267Z,26.23
2022-12-20T13:15:22.463Z,29.37
2022-12-20T13:19:39.418Z,28.58
2022-12-20T13:24:29.889Z,31.90
2022-12-20T13:43:51.203Z,27.30
2022-12-20T13:48:11.673Z,26.77
2022-12-20T13:52:44.520Z,28.60
2022-12-20T13:57:00.728Z,25.85
2022-12-20T14:01:17.103Z,27.50
2022-12-20T14:05:40.218Z,29.75
2022-12-20T14:10:01.956Z,28.60
2022-12-20T14:14:18.177Z,28.85
2022-12-20T14:18:34.386Z,31.60
2022-12-20T14:23:22.081Z,30.98
2022-12-20T14:27:38.859Z,40.58
2022-12-20T14:31:55.185Z,43.92
2022-12-20T14:36:17.550Z,35.40
2022-12-20T14:40:40.969Z,44.17
2022-12-20T14:49:36.623Z,33.35
2022-12-20T14:54:00.115Z,35.85
2022-12-20T15:03:25.103Z,41.42
2022-12-20T15:07:42.124Z,43.95
2022-12-20T15:11:58.586Z,45.83
2022-12-20T15:16:21.902Z,38.88
2022-12-20T15:20:38.515Z,43.63
2022-12-20T15:24:54.749Z,42.38
2022-12-20T15:29:33.229Z,40.22
2022-12-20T15:33:50.700Z,44.67
2022-12-20T15:38:09.921Z,42.78
2022-12-20T15:42:26.196Z,43.80
2022-12-20T15:46:43.024Z,36.88
2022-12-20T15:51:00.234Z,45.40
2022-12-20T15:55:16.456Z,43.80
2022-12-20T16:04:13.935Z,44.70
2022-12-20T16:08:31.096Z,42.13
2022-12-20T16:12:47.325Z,42.55
2022-12-20T16:17:05.618Z,43.97
2022-12-20T16:21:24.773Z,47.42
2022-12-20T16:25:40.997Z,42.38
2022-12-20T16:29:57.350Z,42.88
2022-12-20T16:34:16.019Z,45.67
2022-12-20T16:38:32.233Z,44.03
2022-12-20T16:42:51.322Z,43.22
2022-12-20T16:47:07.598Z,51.88
2022-12-20T16:51:27.251Z,45.95
2022-12-20T16:55:43.528Z,46.42
2022-12-20T16:59:59.926Z,46.65
2022-12-20T17:04:18.113Z,48.30
2022-12-20T17:08:52.916Z,49.50
2022-12-20T17:13:11.918Z,49.00
2022-12-20T17:17:28.246Z,48.22
2022-12-20T17:26:27.415Z,45.60
2022-12-20T17:30:43.764Z,42.30
2022-12-20T17:35:00.049Z,46.45
2022-12-20T17:39:16.940Z,49.05
2022-12-20T17:43:33.162Z,50.75
2022-12-20T17:47:49.733Z,52.03
2022-12-20T17:52:06.104Z,49.58
2022-12-20T17:56:33.197Z,52.88
2022-12-20T18:00:50.557Z,48.53
2022-12-20T18:05:07.725Z,49.97
2022-12-20T18:09:23.949Z,49.60
2022-12-20T18:13:44.762Z,59.60
2022-12-20T18:18:01.018Z,49.63
2022-12-20T18:22:17.386Z,53.45
2022-12-20T18:26:35.121Z,54.33
2022-12-20T18:30:51.425Z,46.58
2022-12-20T18:35:08.365Z,47.80
2022-12-20T18:39:24.683Z,55.00
2022-12-20T18:43:41.089Z,53.10
2022-12-20T18:47:57.358Z,49.92
2022-12-20T18:52:16.524Z,54.08
2022-12-20T18:56:36.711Z,57.53
2022-12-20T19:00:56.804Z,45.70
2022-12-20T19:05:13.120Z,53.75
2022-12-20T19:09:29.372Z,55.60
2022-12-20T19:13:45.845Z,50.30
2022-12-20T19:18:02.272Z,54.80
2022-12-20T19:22:18.613Z,57.50
2022-12-20T19:26:36.687Z,44.88
2022-12-20T19:30:53.026Z,53.22
2022-12-20T19:35:37.429Z,49.30
2022-12-20T19:39:45.713Z,53.03
2022-12-20T19:44:02.273Z,54.83
2022-12-20T19:48:18.773Z,52.97
2022-12-20T19:52:35.216Z,58.22
2022-12-20T19:56:51.412Z,51.85
2022-12-20T20:01:09.171Z,53.97
2022-12-20T20:05:25.383Z,51.88
2022-12-20T20:09:41.613Z,48.75
2022-12-20T20:13:57.975Z,61.17
2022-12-20T20:18:14.204Z,46.58
2022-12-20T20:22:30.452Z,50.03
2022-12-20T20:26:46.698Z,58.10
2022-12-20T20:31:03.899Z,51.45
2022-12-20T20:35:20.279Z,54.78
2022-12-20T20:39:36.541Z,52.35
2022-12-20T20:43:53.034Z,47.40
2022-12-20T20:48:09.767Z,51.33
2022-12-20T20:52:26.017Z,50.83
2022-12-20T20:56:42.362Z,49.50
2022-12-20T21:01:00.516Z,48.05
2022-12-20T21:06:06.221Z,54.83
2022-12-20T21:09:53.820Z,45.42
2022-12-20T21:14:11.303Z,52.35
2022-12-20T21:18:27.577Z,50.12
2022-12-20T21:22:44.048Z,46.88
2022-12-20T21:27:00.318Z,51.85
2022-12-20T21:31:18.660Z,50.30
2022-12-20T21:35:34.938Z,52.80
2022-12-20T21:39:51.635Z,57.78
2022-12-20T21:44:07.987Z,48.20
2022-12-20T21:48:25.101Z,49.40
2022-12-20T21:52:42.073Z,45.95
2022-12-20T21:56:58.545Z,46.72
2022-12-20T22:01:17.212Z,49.80
2022-12-20T22:05:33.489Z,45.35
2022-12-20T22:09:49.730Z,44.92
2022-12-20T22:14:06.961Z,48.55
2022-12-20T22:18:24.287Z,49.05
2022-12-20T22:22:41.321Z,48.15
2022-12-20T22:26:57.644Z,48.75
2022-12-20T22:31:14.648Z,46.13
2022-12-20T22:35:31.072Z,45.60
2022-12-20T22:39:49.500Z,49.85
2022-12-20T22:44:05.864Z,53.20
2022-12-20T22:48:22.159Z,50.97
2022-12-20T22:52:38.412Z,44.22
2022-12-20T22:56:54.592Z,43.72
2022-12-20T23:01:13.099Z,50.88
2022-12-20T23:05:29.364Z,49.15
2022-12-20T23:09:45.495Z,38.55
2022-12-20T23:14:20.308Z,47.17
2022-12-20T23:18:36.499Z,50.25
2022-12-20T23:22:53.044Z,43.97
2022-12-20T23:27:09.254Z,46.63
2022-12-20T23:31:25.511Z,49.88
2022-12-20T23:35:42.115Z,46.05
2022-12-20T23:39:58.356Z,48.75
2022-12-20T23:44:14.637Z,44.45
2022-12-20T23:48:31.393Z,42.53
2022-12-20T23:52:47.621Z,43.40
2022-12-20T23:57:03.889Z,44.92
